sensor_id;sensor_type;location;lat;lon;timestamp;pressure;altitude;pressure_sealevel;temperature;humidity
46241;BME280;31961;52.416;-0.732;2022-09-03T00:00:04;99992.61;;;20.97;44.64
46241;BME280;31961;52.416;-0.732;2022-09-03T00:02:37;99986.63;;;20.72;45.60
46241;BME280;31961;52.416;-0.732;2022-09-03T00:05:12;99986.60;;;20.71;45.57
46241;BME280;31961;52.416;-0.732;2022-09-03T00:07:45;99982.86;;;20.31;46.33
46241;BME280;31961;52.416;-0.732;2022-09-03T00:10:20;99983.55;;;20.58;45.63
46241;BME280;31961;52.416;-0.732;2022-09-03T00:12:51;99980.45;;;20.61;45.91
46241;BME280;31961;52.416;-0.732;2022-09-03T00:15:21;99982.08;;;20.37;46.19
46241;BME280;31961;52.416;-0.732;2022-09-03T00:17:53;99978.57;;;20.66;46.03
46241;BME280;31961;52.416;-0.732;2022-09-03T00:20:25;99975.35;;;20.10;46.58
46241;BME280;31961;52.416;-0.732;2022-09-03T00:22:57;99967.46;;;19.68;47.60
46241;BME280;31961;52.416;-0.732;2022-09-03T00:25:28;99966.26;;;19.72;48.00
46241;BME280;31961;52.416;-0.732;2022-09-03T00:28:02;99963.78;;;19.97;47.59
46241;BME280;31961;52.416;-0.732;2022-09-03T00:30:31;99960.24;;;20.25;47.05
46241;BME280;31961;52.416;-0.732;2022-09-03T00:33:02;99961.14;;;19.97;47.64
46241;BME280;31961;52.416;-0.732;2022-09-03T00:35:43;99957.17;;;19.79;48.01
46241;BME280;31961;52.416;-0.732;2022-09-03T00:38:12;99960.84;;;19.89;48.44
46241;BME280;31961;52.416;-0.732;2022-09-03T00:40:54;99961.73;;;20.11;48.75
46241;BME280;31961;52.416;-0.732;2022-09-03T00:43:32;99958.40;;;19.55;48.69
46241;BME280;31961;52.416;-0.732;2022-09-03T00:46:08;99961.13;;;19.47;48.98
46241;BME280;31961;52.416;-0.732;2022-09-03T00:48:51;99959.68;;;19.63;48.78
46241;BME280;31961;52.416;-0.732;2022-09-03T00:51:27;99956.79;;;19.57;49.12
46241;BME280;31961;52.416;-0.732;2022-09-03T00:54:05;99953.24;;;19.65;48.50
46241;BME280;31961;52.416;-0.732;2022-09-03T00:56:38;99951.40;;;19.73;48.51
46241;BME280;31961;52.416;-0.732;2022-09-03T00:59:20;99949.38;;;19.55;49.27
46241;BME280;31961;52.416;-0.732;2022-09-03T01:02:00;99946.89;;;19.63;48.97
46241;BME280;31961;52.416;-0.732;2022-09-03T01:04:38;99947.74;;;19.22;49.77
46241;BME280;31961;52.416;-0.732;2022-09-03T01:07:12;99948.10;;;19.30;49.81
46241;BME280;31961;52.416;-0.732;2022-09-03T01:09:49;99945.32;;;19.61;49.20
46241;BME280;31961;52.416;-0.732;2022-09-03T01:12:28;99948.83;;;19.55;49.29
46241;BME280;31961;52.416;-0.732;2022-09-03T01:15:06;99945.31;;;18.91;50.75
46241;BME280;31961;52.416;-0.732;2022-09-03T01:17:48;99939.52;;;18.90;50.66
46241;BME280;31961;52.416;-0.732;2022-09-03T01:20:26;99939.22;;;19.45;49.96
46241;BME280;31961;52.416;-0.732;2022-09-03T01:24:17;99936.30;;;19.03;50.32
46241;BME280;31961;52.416;-0.732;2022-09-03T01:26:59;99934.44;;;19.28;50.12
46241;BME280;31961;52.416;-0.732;2022-09-03T01:29:35;99936.85;;;19.55;50.17
46241;BME280;31961;52.416;-0.732;2022-09-03T01:32:07;99936.94;;;19.27;50.09
46241;BME280;31961;52.416;-0.732;2022-09-03T01:34:45;99942.64;;;19.57;50.06
46241;BME280;31961;52.416;-0.732;2022-09-03T01:37:22;99943.62;;;18.74;51.69
46241;BME280;31961;52.416;-0.732;2022-09-03T01:40:00;99946.30;;;19.00;51.41
46241;BME280;31961;52.416;-0.732;2022-09-03T01:42:35;99943.22;;;19.16;50.89
46241;BME280;31961;52.416;-0.732;2022-09-03T01:45:19;99943.10;;;18.31;52.03
46241;BME280;31961;52.416;-0.732;2022-09-03T01:48:00;99946.82;;;18.61;52.46
46241;BME280;31961;52.416;-0.732;2022-09-03T01:50:38;99948.60;;;18.49;52.28
46241;BME280;31961;52.416;-0.732;2022-09-03T01:53:16;99954.07;;;18.07;53.43
46241;BME280;31961;52.416;-0.732;2022-09-03T01:55:59;99954.20;;;18.05;53.25
46241;BME280;31961;52.416;-0.732;2022-09-03T01:58:30;99951.74;;;17.70;54.61
46241;BME280;31961;52.416;-0.732;2022-09-03T02:01:06;99948.87;;;16.98;55.15
46241;BME280;31961;52.416;-0.732;2022-09-03T02:03:39;99951.52;;;18.10;53.56
46241;BME280;31961;52.416;-0.732;2022-09-03T02:06:10;99954.16;;;18.07;52.73
46241;BME280;31961;52.416;-0.732;2022-09-03T02:08:38;99951.69;;;17.46;53.91
46241;BME280;31961;52.416;-0.732;2022-09-03T02:11:07;99952.14;;;16.73;55.88
46241;BME280;31961;52.416;-0.732;2022-09-03T02:13:37;99953.90;;;16.71;56.93
46241;BME280;31961;52.416;-0.732;2022-09-03T02:16:09;99952.59;;;16.62;56.54
46241;BME280;31961;52.416;-0.732;2022-09-03T02:18:41;99951.68;;;16.75;55.41
46241;BME280;31961;52.416;-0.732;2022-09-03T02:21:10;99948.51;;;17.09;55.24
46241;BME280;31961;52.416;-0.732;2022-09-03T02:23:39;99943.87;;;16.98;55.49
46241;BME280;31961;52.416;-0.732;2022-09-03T02:26:09;99946.77;;;16.50;57.02
46241;BME280;31961;52.416;-0.732;2022-09-03T02:28:37;99945.59;;;17.43;55.37
46241;BME280;31961;52.416;-0.732;2022-09-03T02:31:05;99943.03;;;17.01;55.96
46241;BME280;31961;52.416;-0.732;2022-09-03T02:33:36;99943.24;;;16.52;57.47
46241;BME280;31961;52.416;-0.732;2022-09-03T02:36:06;99946.01;;;16.69;57.33
46241;BME280;31961;52.416;-0.732;2022-09-03T02:38:33;99946.31;;;17.17;55.50
46241;BME280;31961;52.416;-0.732;2022-09-03T02:41:00;99942.96;;;17.01;54.96
46241;BME280;31961;52.416;-0.732;2022-09-03T02:43:35;99947.50;;;17.80;54.11
46241;BME280;31961;52.416;-0.732;2022-09-03T02:46:08;99947.40;;;17.82;53.94
46241;BME280;31961;52.416;-0.732;2022-09-03T02:48:36;99956.06;;;15.97;58.28
46241;BME280;31961;52.416;-0.732;2022-09-03T02:51:03;99954.86;;;16.54;57.21
46241;BME280;31961;52.416;-0.732;2022-09-03T02:53:31;99957.36;;;17.22;56.02
46241;BME280;31961;52.416;-0.732;2022-09-03T02:55:58;99959.59;;;17.45;55.22
46241;BME280;31961;52.416;-0.732;2022-09-03T02:58:26;99959.20;;;17.68;54.90
46241;BME280;31961;52.416;-0.732;2022-09-03T03:00:54;99956.19;;;17.01;55.98
46241;BME280;31961;52.416;-0.732;2022-09-03T03:03:21;99960.75;;;16.76;57.77
46241;BME280;31961;52.416;-0.732;2022-09-03T03:05:49;99965.59;;;16.66;57.89
46241;BME280;31961;52.416;-0.732;2022-09-03T03:08:18;99961.72;;;16.27;58.99
46241;BME280;31961;52.416;-0.732;2022-09-03T03:10:46;99956.04;;;16.45;57.34
46241;BME280;31961;52.416;-0.732;2022-09-03T03:13:13;99949.37;;;17.37;55.69
46241;BME280;31961;52.416;-0.732;2022-09-03T03:15:41;99943.74;;;17.95;54.56
46241;BME280;31961;52.416;-0.732;2022-09-03T03:18:08;99938.45;;;18.27;53.66
46241;BME280;31961;52.416;-0.732;2022-09-03T03:20:35;99934.22;;;18.47;53.07
46241;BME280;31961;52.416;-0.732;2022-09-03T03:23:03;99931.40;;;18.20;53.79
46241;BME280;31961;52.416;-0.732;2022-09-03T03:25:31;99925.56;;;18.08;53.70
46241;BME280;31961;52.416;-0.732;2022-09-03T03:27:58;99920.39;;;17.94;54.53
46241;BME280;31961;52.416;-0.732;2022-09-03T03:30:26;99918.41;;;17.75;54.30
46241;BME280;31961;52.416;-0.732;2022-09-03T03:32:54;99916.38;;;17.96;54.05
46241;BME280;31961;52.416;-0.732;2022-09-03T03:35:22;99920.27;;;17.97;54.32
46241;BME280;31961;52.416;-0.732;2022-09-03T03:37:49;99913.22;;;18.37;54.14
46241;BME280;31961;52.416;-0.732;2022-09-03T03:40:17;99914.73;;;18.18;53.93
46241;BME280;31961;52.416;-0.732;2022-09-03T03:42:44;99915.15;;;18.34;54.01
46241;BME280;31961;52.416;-0.732;2022-09-03T03:45:11;99919.50;;;17.91;54.51
46241;BME280;31961;52.416;-0.732;2022-09-03T03:47:38;99919.06;;;18.25;53.93
46241;BME280;31961;52.416;-0.732;2022-09-03T03:50:06;99925.31;;;17.92;54.12
46241;BME280;31961;52.416;-0.732;2022-09-03T03:52:33;99923.26;;;18.19;53.93
46241;BME280;31961;52.416;-0.732;2022-09-03T03:55:00;99918.23;;;17.91;53.96
46241;BME280;31961;52.416;-0.732;2022-09-03T03:57:29;99915.82;;;17.86;53.88
46241;BME280;31961;52.416;-0.732;2022-09-03T03:59:57;99909.86;;;18.08;53.38
46241;BME280;31961;52.416;-0.732;2022-09-03T04:02:24;99908.67;;;18.61;53.14
46241;BME280;31961;52.416;-0.732;2022-09-03T04:04:52;99905.01;;;18.43;53.47
46241;BME280;31961;52.416;-0.732;2022-09-03T04:07:19;99909.25;;;17.70;55.07
46241;BME280;31961;52.416;-0.732;2022-09-03T04:09:46;99909.32;;;17.64;54.83
46241;BME280;31961;52.416;-0.732;2022-09-03T04:12:13;99905.63;;;17.59;54.34
46241;BME280;31961;52.416;-0.732;2022-09-03T04:14:40;99902.58;;;17.87;54.17
46241;BME280;31961;52.416;-0.732;2022-09-03T04:17:08;99900.83;;;17.85;54.16
46241;BME280;31961;52.416;-0.732;2022-09-03T04:19:35;99900.70;;;17.73;53.84
46241;BME280;31961;52.416;-0.732;2022-09-03T04:22:02;99901.30;;;17.83;53.81
46241;BME280;31961;52.416;-0.732;2022-09-03T04:24:29;99901.75;;;18.09;54.33
46241;BME280;31961;52.416;-0.732;2022-09-03T04:26:57;99896.59;;;17.81;54.27
46241;BME280;31961;52.416;-0.732;2022-09-03T04:29:23;99897.42;;;18.14;54.47
46241;BME280;31961;52.416;-0.732;2022-09-03T04:31:52;99902.41;;;18.04;55.68
46241;BME280;31961;52.416;-0.732;2022-09-03T04:34:19;99896.74;;;18.05;55.25
46241;BME280;31961;52.416;-0.732;2022-09-03T04:36:46;99894.86;;;18.21;55.14
46241;BME280;31961;52.416;-0.732;2022-09-03T04:39:14;99894.76;;;18.19;55.09
46241;BME280;31961;52.416;-0.732;2022-09-03T04:41:41;99894.56;;;18.18;55.38
46241;BME280;31961;52.416;-0.732;2022-09-03T04:44:09;99897.04;;;17.37;57.51
46241;BME280;31961;52.416;-0.732;2022-09-03T04:46:36;99900.11;;;17.84;56.24
46241;BME280;31961;52.416;-0.732;2022-09-03T04:49:03;99904.04;;;18.15;56.70
46241;BME280;31961;52.416;-0.732;2022-09-03T04:51:32;99904.42;;;17.42;57.66
46241;BME280;31961;52.416;-0.732;2022-09-03T04:54:00;99907.51;;;17.27;57.30
46241;BME280;31961;52.416;-0.732;2022-09-03T04:56:28;99901.97;;;18.49;55.44
46241;BME280;31961;52.416;-0.732;2022-09-03T04:58:59;99903.35;;;18.31;54.89
46241;BME280;31961;52.416;-0.732;2022-09-03T05:01:28;99899.82;;;18.43;54.54
46241;BME280;31961;52.416;-0.732;2022-09-03T05:03:56;99900.89;;;17.76;54.83
46241;BME280;31961;52.416;-0.732;2022-09-03T05:06:24;99904.17;;;17.03;57.46
46241;BME280;31961;52.416;-0.732;2022-09-03T05:08:53;99908.53;;;17.43;56.88
46241;BME280;31961;52.416;-0.732;2022-09-03T05:11:21;99909.56;;;17.67;56.59
46241;BME280;31961;52.416;-0.732;2022-09-03T05:13:51;99909.51;;;17.80;55.97
46241;BME280;31961;52.416;-0.732;2022-09-03T05:16:18;99915.01;;;17.96;54.94
46241;BME280;31961;52.416;-0.732;2022-09-03T05:18:46;99915.11;;;17.46;57.64
46241;BME280;31961;52.416;-0.732;2022-09-03T05:21:15;99922.39;;;17.37;56.17
46241;BME280;31961;52.416;-0.732;2022-09-03T05:23:45;99923.12;;;18.01;55.21
46241;BME280;31961;52.416;-0.732;2022-09-03T05:26:14;99921.94;;;17.90;54.66
46241;BME280;31961;52.416;-0.732;2022-09-03T05:28:42;99919.70;;;17.99;54.39
46241;BME280;31961;52.416;-0.732;2022-09-03T05:31:11;99917.58;;;17.81;53.90
46241;BME280;31961;52.416;-0.732;2022-09-03T05:33:41;99917.56;;;17.41;54.59
46241;BME280;31961;52.416;-0.732;2022-09-03T05:36:09;99918.61;;;18.05;53.59
46241;BME280;31961;52.416;-0.732;2022-09-03T05:38:37;99923.74;;;17.99;53.59
46241;BME280;31961;52.416;-0.732;2022-09-03T05:41:06;99922.43;;;16.67;57.02
46241;BME280;31961;52.416;-0.732;2022-09-03T05:43:34;99922.66;;;17.16;57.13
46241;BME280;31961;52.416;-0.732;2022-09-03T05:46:02;99918.80;;;15.75;58.69
46241;BME280;31961;52.416;-0.732;2022-09-03T05:48:31;99921.23;;;16.66;58.22
46241;BME280;31961;52.416;-0.732;2022-09-03T05:51:00;99920.41;;;15.94;58.71
46241;BME280;31961;52.416;-0.732;2022-09-03T05:53:28;99922.82;;;16.15;59.40
46241;BME280;31961;52.416;-0.732;2022-09-03T05:55:56;99920.96;;;16.56;57.79
46241;BME280;31961;52.416;-0.732;2022-09-03T05:58:24;99923.62;;;17.13;57.10
46241;BME280;31961;52.416;-0.732;2022-09-03T06:00:51;99923.54;;;16.06;58.27
46241;BME280;31961;52.416;-0.732;2022-09-03T06:03:18;99919.77;;;16.76;57.02
46241;BME280;31961;52.416;-0.732;2022-09-03T06:05:49;99916.80;;;17.06;56.29
46241;BME280;31961;52.416;-0.732;2022-09-03T06:08:17;99916.47;;;17.25;56.01
46241;BME280;31961;52.416;-0.732;2022-09-03T06:10:44;99924.54;;;17.65;55.70
46241;BME280;31961;52.416;-0.732;2022-09-03T06:13:11;99920.97;;;17.33;56.62
46241;BME280;31961;52.416;-0.732;2022-09-03T06:15:39;99922.81;;;17.35;56.40
46241;BME280;31961;52.416;-0.732;2022-09-03T06:18:06;99925.30;;;17.54;56.18
46241;BME280;31961;52.416;-0.732;2022-09-03T06:20:33;99919.02;;;17.06;57.23
46241;BME280;31961;52.416;-0.732;2022-09-03T06:23:00;99917.91;;;17.40;56.86
46241;BME280;31961;52.416;-0.732;2022-09-03T06:25:27;99921.90;;;17.88;55.83
46241;BME280;31961;52.416;-0.732;2022-09-03T06:27:54;99921.43;;;17.37;56.73
46241;BME280;31961;52.416;-0.732;2022-09-03T06:30:22;99922.96;;;17.00;57.78
46241;BME280;31961;52.416;-0.732;2022-09-03T06:32:49;99924.31;;;16.59;59.37
46241;BME280;31961;52.416;-0.732;2022-09-03T06:35:16;99928.39;;;17.72;57.48
46241;BME280;31961;52.416;-0.732;2022-09-03T06:37:44;99930.84;;;17.80;56.97
46241;BME280;31961;52.416;-0.732;2022-09-03T06:40:11;99933.32;;;18.09;56.67
46241;BME280;31961;52.416;-0.732;2022-09-03T06:42:39;99931.97;;;18.43;55.88
46241;BME280;31961;52.416;-0.732;2022-09-03T06:45:07;99932.84;;;18.07;55.63
46241;BME280;31961;52.416;-0.732;2022-09-03T06:47:35;99935.98;;;17.95;56.01
46241;BME280;31961;52.416;-0.732;2022-09-03T06:50:03;99929.83;;;17.60;57.44
46241;BME280;31961;52.416;-0.732;2022-09-03T06:52:30;99924.96;;;18.42;55.58
46241;BME280;31961;52.416;-0.732;2022-09-03T06:54:57;99929.00;;;18.54;55.38
46241;BME280;31961;52.416;-0.732;2022-09-03T06:57:25;99924.54;;;18.24;55.44
46241;BME280;31961;52.416;-0.732;2022-09-03T06:59:52;99922.05;;;19.11;54.50
46241;BME280;31961;52.416;-0.732;2022-09-03T07:02:19;99930.87;;;17.98;56.39
46241;BME280;31961;52.416;-0.732;2022-09-03T07:04:46;99940.17;;;14.76;64.20
46241;BME280;31961;52.416;-0.732;2022-09-03T07:07:14;99935.97;;;16.59;61.61
46241;BME280;31961;52.416;-0.732;2022-09-03T07:09:41;99940.74;;;16.69;60.72
46241;BME280;31961;52.416;-0.732;2022-09-03T07:12:08;99945.13;;;17.61;58.46
46241;BME280;31961;52.416;-0.732;2022-09-03T07:14:35;99941.18;;;18.58;56.35
46241;BME280;31961;52.416;-0.732;2022-09-03T07:17:03;99945.68;;;18.35;55.93
46241;BME280;31961;52.416;-0.732;2022-09-03T07:19:30;99951.24;;;18.48;56.23
46241;BME280;31961;52.416;-0.732;2022-09-03T07:21:57;99956.36;;;17.59;55.98
46241;BME280;31961;52.416;-0.732;2022-09-03T07:24:24;99953.65;;;17.87;57.69
46241;BME280;31961;52.416;-0.732;2022-09-03T07:26:51;99946.05;;;16.70;60.00
46241;BME280;31961;52.416;-0.732;2022-09-03T07:29:19;99944.42;;;17.40;59.30
46241;BME280;31961;52.416;-0.732;2022-09-03T07:31:47;99945.36;;;17.77;57.60
46241;BME280;31961;52.416;-0.732;2022-09-03T07:34:14;99949.32;;;16.91;59.56
46241;BME280;31961;52.416;-0.732;2022-09-03T07:36:43;99955.62;;;15.57;64.62
46241;BME280;31961;52.416;-0.732;2022-09-03T07:39:13;99955.28;;;15.63;63.87
46241;BME280;31961;52.416;-0.732;2022-09-03T07:41:41;99956.34;;;16.84;61.15
46241;BME280;31961;52.416;-0.732;2022-09-03T07:44:09;99958.29;;;16.02;62.16
46241;BME280;31961;52.416;-0.732;2022-09-03T07:46:37;99954.89;;;16.56;61.84
46241;BME280;31961;52.416;-0.732;2022-09-03T07:49:05;99955.32;;;17.51;58.30
46241;BME280;31961;52.416;-0.732;2022-09-03T07:51:34;99958.86;;;16.94;59.39
46241;BME280;31961;52.416;-0.732;2022-09-03T07:54:04;99966.51;;;17.95;56.91
46241;BME280;31961;52.416;-0.732;2022-09-03T07:56:32;99963.67;;;17.35;57.90
46241;BME280;31961;52.416;-0.732;2022-09-03T07:59:00;99960.31;;;18.59;54.84
46241;BME280;31961;52.416;-0.732;2022-09-03T08:01:28;99966.98;;;18.94;54.19
46241;BME280;31961;52.416;-0.732;2022-09-03T08:03:56;99969.70;;;18.19;55.49
46241;BME280;31961;52.416;-0.732;2022-09-03T08:06:25;99968.47;;;17.03;59.33
46241;BME280;31961;52.416;-0.732;2022-09-03T08:08:55;99971.25;;;16.21;62.15
46241;BME280;31961;52.416;-0.732;2022-09-03T08:11:22;99965.79;;;16.85;59.45
46241;BME280;31961;52.416;-0.732;2022-09-03T08:13:55;99967.93;;;17.25;59.66
46241;BME280;31961;52.416;-0.732;2022-09-03T08:16:22;99970.57;;;18.39;56.05
46241;BME280;31961;52.416;-0.732;2022-09-03T08:18:50;99975.76;;;18.10;56.39
46241;BME280;31961;52.416;-0.732;2022-09-03T08:21:18;99974.43;;;18.84;55.30
46241;BME280;31961;52.416;-0.732;2022-09-03T08:23:47;99978.18;;;18.80;54.90
46241;BME280;31961;52.416;-0.732;2022-09-03T08:26:16;99978.43;;;17.75;57.60
46241;BME280;31961;52.416;-0.732;2022-09-03T08:28:44;99982.23;;;17.99;57.44
46241;BME280;31961;52.416;-0.732;2022-09-03T08:31:13;99981.09;;;18.81;55.09
46241;BME280;31961;52.416;-0.732;2022-09-03T08:33:43;99982.27;;;19.19;54.68
46241;BME280;31961;52.416;-0.732;2022-09-03T08:36:12;99981.13;;;19.20;54.10
46241;BME280;31961;52.416;-0.732;2022-09-03T08:38:41;99982.02;;;18.40;55.25
46241;BME280;31961;52.416;-0.732;2022-09-03T08:41:11;99983.75;;;17.97;56.26
46241;BME280;31961;52.416;-0.732;2022-09-03T08:43:58;99980.49;;;19.09;54.34
46241;BME280;31961;52.416;-0.732;2022-09-03T08:46:39;99975.57;;;19.38;53.19
46241;BME280;31961;52.416;-0.732;2022-09-03T08:49:11;99986.13;;;18.44;54.20
46241;BME280;31961;52.416;-0.732;2022-09-03T08:51:40;99988.07;;;18.79;53.51
46241;BME280;31961;52.416;-0.732;2022-09-03T08:54:08;99990.70;;;18.87;54.29
46241;BME280;31961;52.416;-0.732;2022-09-03T08:56:39;99992.15;;;17.39;57.22
46241;BME280;31961;52.416;-0.732;2022-09-03T08:59:07;99997.54;;;18.29;56.30
46241;BME280;31961;52.416;-0.732;2022-09-03T09:01:42;99999.66;;;18.25;56.31
46241;BME280;31961;52.416;-0.732;2022-09-03T09:04:25;100001.98;;;18.75;55.08
46241;BME280;31961;52.416;-0.732;2022-09-03T09:07:03;100004.46;;;17.02;59.67
46241;BME280;31961;52.416;-0.732;2022-09-03T09:09:42;100009.33;;;18.46;56.55
46241;BME280;31961;52.416;-0.732;2022-09-03T09:12:17;100005.05;;;17.36;57.64
46241;BME280;31961;52.416;-0.732;2022-09-03T09:14:51;100005.53;;;18.72;55.33
46241;BME280;31961;52.416;-0.732;2022-09-03T09:17:36;100008.36;;;18.78;55.21
46241;BME280;31961;52.416;-0.732;2022-09-03T09:20:14;100004.58;;;18.46;55.90
46241;BME280;31961;52.416;-0.732;2022-09-03T09:22:46;100008.22;;;17.54;57.17
46241;BME280;31961;52.416;-0.732;2022-09-03T09:25:19;100008.39;;;17.84;57.33
46241;BME280;31961;52.416;-0.732;2022-09-03T09:27:51;100009.65;;;18.39;57.20
46241;BME280;31961;52.416;-0.732;2022-09-03T09:30:20;100013.02;;;18.98;54.17
46241;BME280;31961;52.416;-0.732;2022-09-03T09:32:47;100009.92;;;19.44;52.52
46241;BME280;31961;52.416;-0.732;2022-09-03T09:35:17;100017.16;;;18.75;53.87
46241;BME280;31961;52.416;-0.732;2022-09-03T09:37:48;100016.19;;;19.24;53.32
46241;BME280;31961;52.416;-0.732;2022-09-03T09:40:26;100009.27;;;19.81;52.09
46241;BME280;31961;52.416;-0.732;2022-09-03T09:43:03;100007.40;;;19.77;51.35
46241;BME280;31961;52.416;-0.732;2022-09-03T09:45:30;100005.03;;;20.24;49.98
46241;BME280;31961;52.416;-0.732;2022-09-03T09:47:58;100000.85;;;20.19;49.51
46241;BME280;31961;52.416;-0.732;2022-09-03T09:50:26;99999.87;;;20.35;49.09
46241;BME280;31961;52.416;-0.732;2022-09-03T09:53:01;99997.12;;;20.37;48.63
46241;BME280;31961;52.416;-0.732;2022-09-03T09:55:29;99993.34;;;20.49;48.58
46241;BME280;31961;52.416;-0.732;2022-09-03T09:58:04;99996.39;;;20.35;47.66
46241;BME280;31961;52.416;-0.732;2022-09-03T10:00:32;100000.45;;;18.50;50.31
46241;BME280;31961;52.416;-0.732;2022-09-03T10:02:59;100000.87;;;18.69;50.74
46241;BME280;31961;52.416;-0.732;2022-09-03T10:05:28;100001.63;;;18.34;52.22
46241;BME280;31961;52.416;-0.732;2022-09-03T10:07:59;100001.32;;;19.05;49.21
46241;BME280;31961;52.416;-0.732;2022-09-03T10:10:28;99999.05;;;18.93;50.51
46241;BME280;31961;52.416;-0.732;2022-09-03T10:12:58;99990.10;;;19.63;48.47
46241;BME280;31961;52.416;-0.732;2022-09-03T10:15:34;99991.03;;;19.18;49.62
46241;BME280;31961;52.416;-0.732;2022-09-03T10:18:09;99993.76;;;19.36;48.00
46241;BME280;31961;52.416;-0.732;2022-09-03T10:20:43;99995.83;;;18.88;48.90
46241;BME280;31961;52.416;-0.732;2022-09-03T10:23:16;99990.04;;;20.04;47.66
46241;BME280;31961;52.416;-0.732;2022-09-03T10:25:54;99995.00;;;18.62;50.64
46241;BME280;31961;52.416;-0.732;2022-09-03T10:28:26;99991.76;;;18.50;51.60
46241;BME280;31961;52.416;-0.732;2022-09-03T10:31:04;99985.19;;;20.16;48.07
46241;BME280;31961;52.416;-0.732;2022-09-03T10:33:39;99986.32;;;20.39;47.50
46241;BME280;31961;52.416;-0.732;2022-09-03T10:36:14;99988.14;;;19.66;49.48
46241;BME280;31961;52.416;-0.732;2022-09-03T10:38:46;99989.34;;;19.79;48.92
46241;BME280;31961;52.416;-0.732;2022-09-03T10:41:26;99992.27;;;19.26;50.26
46241;BME280;31961;52.416;-0.732;2022-09-03T10:44:12;99988.23;;;19.83;49.07
46241;BME280;31961;52.416;-0.732;2022-09-03T10:46:53;99993.19;;;18.39;50.72
46241;BME280;31961;52.416;-0.732;2022-09-03T10:49:29;99992.06;;;19.05;50.40
46241;BME280;31961;52.416;-0.732;2022-09-03T10:52:05;99987.73;;;19.21;49.81
46241;BME280;31961;52.416;-0.732;2022-09-03T10:54:44;99987.31;;;19.44;49.71
46241;BME280;31961;52.416;-0.732;2022-09-03T10:57:25;99987.70;;;19.82;48.59
46241;BME280;31961;52.416;-0.732;2022-09-03T11:00:03;99990.13;;;20.24;46.31
46241;BME280;31961;52.416;-0.732;2022-09-03T11:02:52;99990.29;;;19.36;49.24
46241;BME280;31961;52.416;-0.732;2022-09-03T11:05:26;99990.01;;;19.41;49.85
46241;BME280;31961;52.416;-0.732;2022-09-03T11:08:00;99994.58;;;18.82;50.13
46241;BME280;31961;52.416;-0.732;2022-09-03T11:10:31;99986.50;;;19.07;49.53
46241;BME280;31961;52.416;-0.732;2022-09-03T11:13:04;99983.83;;;20.22;48.38
46241;BME280;31961;52.416;-0.732;2022-09-03T11:15:34;99985.72;;;20.76;46.70
46241;BME280;31961;52.416;-0.732;2022-09-03T11:18:14;99983.79;;;20.33;47.19
46241;BME280;31961;52.416;-0.732;2022-09-03T11:20:44;99982.36;;;20.00;48.55
46241;BME280;31961;52.416;-0.732;2022-09-03T11:23:13;99983.87;;;20.96;46.88
46241;BME280;31961;52.416;-0.732;2022-09-03T11:25:45;99984.41;;;20.48;46.73
46241;BME280;31961;52.416;-0.732;2022-09-03T11:28:24;99993.22;;;19.13;48.29
46241;BME280;31961;52.416;-0.732;2022-09-03T11:31:08;99985.49;;;19.60;47.18
46241;BME280;31961;52.416;-0.732;2022-09-03T11:33:42;99983.62;;;19.73;47.98
46241;BME280;31961;52.416;-0.732;2022-09-03T11:36:10;99995.55;;;19.03;49.44
46241;BME280;31961;52.416;-0.732;2022-09-03T11:38:37;99986.43;;;20.47;46.82
46241;BME280;31961;52.416;-0.732;2022-09-03T11:41:11;99989.80;;;20.26;46.65
46241;BME280;31961;52.416;-0.732;2022-09-03T11:43:40;99994.35;;;20.01;47.43
46241;BME280;31961;52.416;-0.732;2022-09-03T11:46:10;99989.47;;;20.57;46.21
46241;BME280;31961;52.416;-0.732;2022-09-03T11:48:41;99985.09;;;21.37;44.11
46241;BME280;31961;52.416;-0.732;2022-09-03T11:51:19;99987.75;;;21.44;44.41
46241;BME280;31961;52.416;-0.732;2022-09-03T11:53:56;99989.90;;;20.97;45.75
46241;BME280;31961;52.416;-0.732;2022-09-03T11:56:24;99988.44;;;21.16;44.79
46241;BME280;31961;52.416;-0.732;2022-09-03T11:59:03;99984.32;;;20.92;44.79
46241;BME280;31961;52.416;-0.732;2022-09-03T12:01:33;99987.02;;;20.65;44.41
46241;BME280;31961;52.416;-0.732;2022-09-03T12:04:04;99991.71;;;20.38;46.13
46241;BME280;31961;52.416;-0.732;2022-09-03T12:06:52;99989.09;;;20.95;45.26
46241;BME280;31961;52.416;-0.732;2022-09-03T12:09:33;99988.79;;;21.93;42.95
46241;BME280;31961;52.416;-0.732;2022-09-03T12:12:25;99988.14;;;21.30;43.41
46241;BME280;31961;52.416;-0.732;2022-09-03T12:15:03;99988.65;;;20.55;44.66
46241;BME280;31961;52.416;-0.732;2022-09-03T12:17:38;99988.58;;;19.37;47.84
46241;BME280;31961;52.416;-0.732;2022-09-03T12:20:12;99998.85;;;19.17;49.00
46241;BME280;31961;52.416;-0.732;2022-09-03T12:22:40;99994.32;;;20.02;47.06
46241;BME280;31961;52.416;-0.732;2022-09-03T12:25:09;99998.34;;;20.73;45.85
46241;BME280;31961;52.416;-0.732;2022-09-03T12:27:37;99994.41;;;20.31;46.08
46241;BME280;31961;52.416;-0.732;2022-09-03T12:30:15;99990.75;;;20.34;46.07
46241;BME280;31961;52.416;-0.732;2022-09-03T12:32:43;99990.90;;;20.08;46.37
46241;BME280;31961;52.416;-0.732;2022-09-03T12:35:12;99987.34;;;20.74;45.78
46241;BME280;31961;52.416;-0.732;2022-09-03T12:37:41;99986.31;;;20.55;45.11
46241;BME280;31961;52.416;-0.732;2022-09-03T12:40:17;99986.70;;;21.16;44.61
46241;BME280;31961;52.416;-0.732;2022-09-03T12:42:44;99991.02;;;22.11;42.38
46241;BME280;31961;52.416;-0.732;2022-09-03T12:45:13;99989.95;;;21.95;42.03
46241;BME280;31961;52.416;-0.732;2022-09-03T12:47:42;99990.15;;;21.75;42.29
46241;BME280;31961;52.416;-0.732;2022-09-03T12:50:10;99988.27;;;22.46;40.60
46241;BME280;31961;52.416;-0.732;2022-09-03T12:52:41;99987.78;;;23.19;39.88
46241;BME280;31961;52.416;-0.732;2022-09-03T12:55:23;99983.98;;;22.31;41.31
46241;BME280;31961;52.416;-0.732;2022-09-03T12:57:56;99986.48;;;21.50;42.55
46241;BME280;31961;52.416;-0.732;2022-09-03T13:00:28;99990.75;;;23.16;40.09
46241;BME280;31961;52.416;-0.732;2022-09-03T13:03:00;99986.24;;;23.05;38.89
46241;BME280;31961;52.416;-0.732;2022-09-03T13:05:32;99982.16;;;23.74;39.02
46241;BME280;31961;52.416;-0.732;2022-09-03T13:08:01;99989.61;;;22.76;39.41
46241;BME280;31961;52.416;-0.732;2022-09-03T13:10:33;99979.72;;;23.93;39.46